createdAt,value
2019-05-01T00:03:51.743Z,61.70
2019-05-01T00:08:12.558Z,61.40
2019-05-01T00:12:32.759Z,61.80
2019-05-01T00:16:51.165Z,61.80
2019-05-01T00:21:11.295Z,62.00
2019-05-01T00:25:31.714Z,61.80
2019-05-01T00:29:50.063Z,61.90
2019-05-01T00:34:08.733Z,61.80
2019-05-01T00:38:27.702Z,62.00
2019-05-01T00:42:46.284Z,62.00
2019-05-01T00:47:04.762Z,62.00
2019-05-01T00:51:23.368Z,62.10
2019-05-01T00:56:06.663Z,62.20
2019-05-01T01:00:43.316Z,62.30
2019-05-01T01:05:01.606Z,62.30
2019-05-01T01:09:21.462Z,62.20
2019-05-01T01:13:39.919Z,62.20
2019-05-01T01:17:58.520Z,62.20
2019-05-01T01:22:16.709Z,62.20
2019-05-01T01:26:35.166Z,62.40
2019-05-01T01:30:56.548Z,62.30
2019-05-01T01:35:13.768Z,62.10
2019-05-01T01:39:32.103Z,62.10
2019-05-01T01:44:06.506Z,62.20
2019-05-01T01:48:25.743Z,62.20
2019-05-01T01:52:44.106Z,62.00
2019-05-01T01:57:02.485Z,62.10
2019-05-01T02:01:51.987Z,62.20
2019-05-01T02:06:10.639Z,63.50
2019-05-01T02:10:41.829Z,63.50
2019-05-01T02:14:49.764Z,63.70
2019-05-01T02:19:08.224Z,63.70
2019-05-01T02:23:26.779Z,63.60
2019-05-01T02:27:54.842Z,63.70
2019-05-01T02:32:14.069Z,63.50
2019-05-01T02:36:34.981Z,63.70
2019-05-01T02:41:00.830Z,63.90
2019-05-01T02:45:29.062Z,63.70
2019-05-01T02:49:59.746Z,63.70
2019-05-01T02:54:21.581Z,63.90
2019-05-01T02:58:41.841Z,63.80
2019-05-01T03:03:03.301Z,63.60
2019-05-01T03:07:24.635Z,63.90
2019-05-01T03:11:46.294Z,64.00
2019-05-01T03:16:07.531Z,64.00
2019-05-01T03:20:51.850Z,64.00
2019-05-01T03:25:10.471Z,64.00
2019-05-01T03:29:29.464Z,64.00
2019-05-01T03:33:48.530Z,64.10
2019-05-01T03:38:07.307Z,64.00
2019-05-01T03:42:26.428Z,64.20
2019-05-01T03:46:45.919Z,64.10
2019-05-01T03:51:04.659Z,64.20
2019-05-01T03:55:23.342Z,64.20
2019-05-01T03:59:42.374Z,64.10
2019-05-01T04:04:10.064Z,64.10
2019-05-01T04:08:28.803Z,64.20
2019-05-01T04:12:47.764Z,64.20
2019-05-01T04:17:21.548Z,64.30
2019-05-01T04:21:47.905Z,64.40
2019-05-01T04:26:07.772Z,64.50
2019-05-01T04:30:54.195Z,64.60
2019-05-01T04:35:21.283Z,64.80
2019-05-01T04:39:40.131Z,65.00
2019-05-01T04:43:58.558Z,65.60
2019-05-01T04:48:17.991Z,67.10
2019-05-01T04:52:36.647Z,68.40
2019-05-01T04:56:55.463Z,69.40
2019-05-01T05:01:14.627Z,69.10
2019-05-01T05:05:34.512Z,70.00
2019-05-01T05:09:52.906Z,70.60
2019-05-01T05:14:19.430Z,71.20
2019-05-01T05:18:39.247Z,71.80
2019-05-01T05:22:57.598Z,72.50
2019-05-01T05:27:19.480Z,72.90
2019-05-01T05:31:40.770Z,73.00
2019-05-01T05:36:00.587Z,73.30
2019-05-01T05:40:20.859Z,73.60
2019-05-01T05:44:40.071Z,73.70
2019-05-01T05:48:58.401Z,73.70
2019-05-01T05:53:22.276Z,73.70
2019-05-01T05:58:07.200Z,73.80
2019-05-01T06:02:39.616Z,73.10
2019-05-01T06:07:13.498Z,73.20
2019-05-01T06:11:54.776Z,73.20
2019-05-01T06:16:31.644Z,72.20
2019-05-01T06:21:02.171Z,71.30
2019-05-01T06:25:25.395Z,70.60
2019-05-01T06:29:44.642Z,69.90
2019-05-01T06:34:04.155Z,69.60
2019-05-01T06:38:23.563Z,70.30
2019-05-01T06:42:45.662Z,68.80
2019-05-01T06:47:14.998Z,68.90
2019-05-01T06:51:55.231Z,68.70
2019-05-01T06:56:13.547Z,67.70
2019-05-01T07:00:32.186Z,66.40
2019-05-01T07:04:52.459Z,66.00
2019-05-01T07:09:11.976Z,65.60
2019-05-01T07:13:35.527Z,64.50
2019-05-01T07:17:54.575Z,64.80
2019-05-01T07:22:13.587Z,64.20
2019-05-01T07:26:32.020Z,64.20
2019-05-01T07:31:05.141Z,63.80
2019-05-01T07:35:26.586Z,63.60
2019-05-01T07:39:49.803Z,63.50
2019-05-01T07:44:33.757Z,63.10
2019-05-01T07:48:52.003Z,63.40
2019-05-01T07:53:10.689Z,62.90
2019-05-01T07:57:34.135Z,61.80
2019-05-01T08:02:01.329Z,60.50
2019-05-01T08:06:21.755Z,59.60
2019-05-01T08:10:40.544Z,59.90
2019-05-01T08:14:59.056Z,60.30
2019-05-01T08:19:29.159Z,60.00
2019-05-01T08:23:48.319Z,60.20
2019-05-01T08:28:19.040Z,60.00
2019-05-01T08:32:43.378Z,60.00
2019-05-01T08:37:01.708Z,58.60
2019-05-01T08:41:21.357Z,57.40
2019-05-01T08:45:58.959Z,56.30
2019-05-01T08:50:19.852Z,56.80
2019-05-01T08:54:40.056Z,57.10
2019-05-01T08:58:58.766Z,56.70
2019-05-01T09:03:18.693Z,57.00
2019-05-01T09:07:38.168Z,57.20
2019-05-01T09:11:56.739Z,57.20
2019-05-01T09:16:19.057Z,57.20
2019-05-01T09:20:46.197Z,57.30
2019-05-01T09:25:07.106Z,57.90
2019-05-01T09:29:31.112Z,56.70
2019-05-01T09:33:50.075Z,55.40
2019-05-01T09:38:08.333Z,54.80
2019-05-01T09:42:27.087Z,54.50
2019-05-01T09:46:45.897Z,54.70
2019-05-01T09:51:27.341Z,53.90
2019-05-01T09:56:17.068Z,54.00
2019-05-01T10:00:36.205Z,53.70
2019-05-01T10:04:55.477Z,54.20
2019-05-01T10:09:16.766Z,54.30
2019-05-01T10:13:34.574Z,54.40
2019-05-01T10:17:53.675Z,52.90
2019-05-01T10:22:12.144Z,52.60
2019-05-01T10:26:32.327Z,52.00
2019-05-01T10:31:01.037Z,50.30
2019-05-01T10:35:43.926Z,49.60
2019-05-01T10:40:02.730Z,48.40
2019-05-01T10:44:21.037Z,48.40
2019-05-01T10:48:39.663Z,49.00
2019-05-01T10:52:58.229Z,49.30
2019-05-01T10:57:16.634Z,48.80
2019-05-01T11:01:51.682Z,48.20
2019-05-01T11:06:10.304Z,48.40
2019-05-01T11:10:28.636Z,45.00
2019-05-01T11:14:47.032Z,46.10
2019-05-01T11:19:05.850Z,46.40
2019-05-01T11:23:24.253Z,46.60
2019-05-01T11:27:43.000Z,45.10
2019-05-01T11:32:19.180Z,43.30
2019-05-01T11:37:10.411Z,43.40
2019-05-01T11:41:33.901Z,43.00
2019-05-01T11:45:52.509Z,44.50
2019-05-01T11:50:11.453Z,45.10
2019-05-01T11:54:31.010Z,44.50
2019-05-01T11:58:49.482Z,44.50
2019-05-01T12:03:07.884Z,44.40
2019-05-01T12:07:26.349Z,44.00
2019-05-01T12:11:46.768Z,44.20
2019-05-01T12:16:20.636Z,43.50
2019-05-01T12:20:39.646Z,42.70
2019-05-01T12:25:00.084Z,42.20
2019-05-01T12:29:18.447Z,42.90
2019-05-01T12:33:36.962Z,41.90
2019-05-01T12:37:57.405Z,41.80
2019-05-01T12:42:17.059Z,42.80
2019-05-01T12:47:01.394Z,42.30
2019-05-01T12:51:19.851Z,42.20
2019-05-01T12:56:09.923Z,39.90
2019-05-01T13:00:46.575Z,42.00
2019-05-01T13:05:05.339Z,41.20
2019-05-01T13:09:23.589Z,41.50
2019-05-01T13:13:43.817Z,42.50
2019-05-01T13:18:02.839Z,43.30
2019-05-01T13:22:21.271Z,42.60
2019-05-01T13:26:50.984Z,42.50
2019-05-01T13:31:20.794Z,42.00
2019-05-01T13:35:40.964Z,42.30
2019-05-01T13:40:00.357Z,41.00
2019-05-01T13:44:19.826Z,38.50
2019-05-01T13:48:38.315Z,40.00
2019-05-01T13:52:57.226Z,38.50
2019-05-01T13:57:17.308Z,36.70
2019-05-01T14:01:36.090Z,37.30
2019-05-01T14:05:56.187Z,37.60
2019-05-01T14:10:15.774Z,38.10
2019-05-01T14:14:34.504Z,37.90
2019-05-01T14:18:55.504Z,37.80
2019-05-01T14:23:24.369Z,36.50
2019-05-01T14:27:42.614Z,37.60
2019-05-01T14:32:03.301Z,38.20
2019-05-01T14:36:21.995Z,38.20
2019-05-01T14:40:40.531Z,38.60
2019-05-01T14:44:59.116Z,39.00
2019-05-01T14:49:17.887Z,39.00
2019-05-01T14:53:36.414Z,38.80
2019-05-01T14:57:57.841Z,39.20
2019-05-01T15:02:17.471Z,39.10
2019-05-01T15:06:36.137Z,39.10
2019-05-01T15:10:55.030Z,39.00
2019-05-01T15:15:38.944Z,39.10
2019-05-01T15:20:06.051Z,39.10
2019-05-01T15:24:26.030Z,37.80
2019-05-01T15:28:45.090Z,38.30
2019-05-01T15:33:05.035Z,36.50
2019-05-01T15:37:23.336Z,38.00
2019-05-01T15:42:12.966Z,38.30
2019-05-01T15:46:32.111Z,38.50
2019-05-01T15:50:50.481Z,39.00
2019-05-01T15:55:10.858Z,38.10
2019-05-01T15:59:29.834Z,38.50
2019-05-01T16:03:48.281Z,38.30
2019-05-01T16:08:09.788Z,38.30
2019-05-01T16:12:33.087Z,38.50
2019-05-01T16:16:53.405Z,38.80
2019-05-01T16:21:13.700Z,38.70
2019-05-01T16:25:32.985Z,38.60
2019-05-01T16:29:51.578Z,38.70
2019-05-01T16:34:10.438Z,38.60
2019-05-01T16:38:37.858Z,38.70
2019-05-01T16:42:56.302Z,38.70
2019-05-01T16:47:15.121Z,38.90
2019-05-01T16:51:33.706Z,38.60
2019-05-01T16:55:52.461Z,38.50
2019-05-01T17:00:12.936Z,38.70
2019-05-01T17:04:37.375Z,38.00
2019-05-01T17:08:59.243Z,38.90
2019-05-01T17:13:17.791Z,38.30
2019-05-01T17:17:36.511Z,38.60
2019-05-01T17:21:55.382Z,38.80
2019-05-01T17:26:13.746Z,38.70
2019-05-01T17:30:58.445Z,39.30
2019-05-01T17:35:19.011Z,39.60
2019-05-01T17:39:39.190Z,39.80
2019-05-01T17:43:59.798Z,39.90
2019-05-01T17:48:18.772Z,39.90
2019-05-01T17:52:37.443Z,40.00
2019-05-01T17:56:56.174Z,40.70
2019-05-01T18:01:40.965Z,40.30
2019-05-01T18:06:18.199Z,40.30
2019-05-01T18:10:38.554Z,40.40
2019-05-01T18:14:59.856Z,40.70
2019-05-01T18:19:19.106Z,40.90
2019-05-01T18:23:55.855Z,40.90
2019-05-01T18:28:31.702Z,41.00
2019-05-01T18:32:52.491Z,41.00
2019-05-01T18:37:19.334Z,41.10
2019-05-01T18:41:46.964Z,41.20
2019-05-01T18:46:10.456Z,41.30
2019-05-01T18:50:30.138Z,41.40
2019-05-01T18:54:49.561Z,41.40
2019-05-01T18:59:09.397Z,41.40
2019-05-01T19:03:30.018Z,41.50
2019-05-01T19:07:48.982Z,41.60
2019-05-01T19:12:09.689Z,41.60
2019-05-01T19:16:29.925Z,41.80
2019-05-01T19:20:59.257Z,41.90
2019-05-01T19:25:16.359Z,41.90
2019-05-01T19:29:33.877Z,42.00
2019-05-01T19:33:53.442Z,42.00
2019-05-01T19:38:16.252Z,42.10
2019-05-01T19:42:35.507Z,42.30
2019-05-01T19:46:54.577Z,42.50
2019-05-01T19:51:13.758Z,42.50
2019-05-01T19:55:32.913Z,42.50
2019-05-01T19:59:51.698Z,42.60
2019-05-01T20:04:13.058Z,42.70
2019-05-01T20:08:33.247Z,42.70
2019-05-01T20:12:51.419Z,42.80
2019-05-01T20:17:11.866Z,42.80
2019-05-01T20:21:30.783Z,42.90
2019-05-01T20:25:51.097Z,43.10
2019-05-01T20:30:11.063Z,43.10
2019-05-01T20:34:29.837Z,43.20
2019-05-01T20:38:48.686Z,43.20
2019-05-01T20:43:07.386Z,43.40
2019-05-01T20:47:34.850Z,43.50
2019-05-01T20:51:46.015Z,43.60
2019-05-01T20:56:26.004Z,43.70
2019-05-01T21:00:48.055Z,43.70
2019-05-01T21:05:23.044Z,44.10
2019-05-01T21:09:47.817Z,44.20
2019-05-01T21:14:17.030Z,44.00
2019-05-01T21:18:25.906Z,44.10
2019-05-01T21:22:44.841Z,44.20
2019-05-01T21:27:03.551Z,44.30
2019-05-01T21:31:23.957Z,44.40
2019-05-01T21:35:44.345Z,44.70
2019-05-01T21:40:02.854Z,44.80
2019-05-01T21:44:23.357Z,44.90
2019-05-01T21:48:43.866Z,45.00
2019-05-01T21:53:06.550Z,44.90
2019-05-01T21:57:24.540Z,44.90
2019-05-01T22:01:43.924Z,45.00
2019-05-01T22:06:04.054Z,45.10
2019-05-01T22:10:26.597Z,45.20
2019-05-01T22:14:54.985Z,45.30
2019-05-01T22:19:20.424Z,45.30
2019-05-01T22:23:57.315Z,45.40
2019-05-01T22:28:41.598Z,45.30
2019-05-01T22:33:01.412Z,45.40
2019-05-01T22:37:20.958Z,45.50
2019-05-01T22:41:40.613Z,45.60
2019-05-01T22:46:03.328Z,45.60
2019-05-01T22:50:22.133Z,45.80
2019-05-01T22:54:44.887Z,45.90
2019-05-01T22:59:00.662Z,45.90
2019-05-01T23:03:29.928Z,46.00
2019-05-01T23:07:48.739Z,46.10
2019-05-01T23:12:07.484Z,46.10
2019-05-01T23:16:28.672Z,46.20
2019-05-01T23:20:47.716Z,46.20
2019-05-01T23:25:06.677Z,47.00
2019-05-01T23:29:24.938Z,46.30
2019-05-01T23:33:45.752Z,46.40
2019-05-01T23:38:03.281Z,46.50
2019-05-01T23:42:21.824Z,46.50
2019-05-01T23:46:40.159Z,46.60
2019-05-01T23:50:58.740Z,46.60
2019-05-01T23:55:18.088Z,46.80
2019-05-01T23:59:36.902Z,47.00
